Leonard, Oklahoma
Current Conditions -  °F | °C
As of 2:53 PM on Monday 22 Dec 2014 (Local Time) from KRVS Reporting Station
Overcast Overcast  
Wind Chill: 55°   Ceiling: 3900
Heat Index: 55°   Visibility: 10mi
Dew Point: 46°   Wind: 7mph
Humidity: 72%   Direction: NA
Pressure: 29.53"   Gusts: NA
Location:  35.92°N, 95.8°W
Report Text: KRVS 222053Z VRB06KT 10SM FEW021 OVC039 13/08 A2953 RMK AO2 SLP002 T01280078 56013
Loading
Personal Weather Stations






























Interactive Weather Map New forecast layout! Learn more

10-Day Weather Forecast

Advertisements
Track Severe Weather on mobile